KFME

Tipton Airport

Fort Meade(Odenton), Maryland, USA
METAR KFME 110203Z AUTO 00000KT 10SM CLR M05/M06 A3022 RMK AO1
Observed Flight Rules
Dec-11 @ 02:03 UTC (22 minutes ago) Visual Flight Rules
Visibility Clouds
10 miles
  • Clear skies
Temperatures Readings
Current -5°C / 23°F
Dewpoint -6°C / 21°F
Humidity 93%
Altimeter 30.22" Hg
Pressure 1023 hPa
Elevation 46
METAR KFME 110203Z AUTO 00000KT 10SM CLR M05/M06 A3022 RMK AO1
Observed Flight Rules
Dec-11 @ 02:03 UTC
(22 minutes ago)
VFR
Clouds
  • Clear skies
Temperature Dewpoint
-5°C / 23°F -6°C / 21°F
Humidity Altimeter Pressure
93% 30.22" Hg 1023 hPa